createdAt,value
2023-05-23T00:00:23.931Z,18.77
2023-05-23T00:01:27.012Z,18.77
2023-05-23T00:02:29.335Z,18.79
2023-05-23T00:03:31.852Z,18.81
2023-05-23T00:04:35.380Z,18.86
2023-05-23T00:05:37.792Z,18.90
2023-05-23T00:06:40.890Z,18.94
2023-05-23T00:09:03.066Z,19.16
2023-05-23T00:10:07.664Z,19.07
2023-05-23T00:11:10.416Z,19.12
2023-05-23T00:12:12.530Z,19.14
2023-05-23T00:13:17.286Z,19.18
2023-05-23T00:14:19.647Z,19.18
2023-05-23T00:15:22.044Z,19.19
2023-05-23T00:16:26.428Z,19.21
2023-05-23T00:17:28.742Z,19.19
2023-05-23T00:18:31.297Z,19.16
2023-05-23T00:19:34.619Z,19.15
2023-05-23T00:20:38.697Z,19.16
2023-05-23T00:22:52.825Z,19.31
2023-05-23T00:23:55.164Z,19.21
2023-05-23T00:24:57.877Z,19.21
2023-05-23T00:26:00.068Z,19.23
2023-05-23T00:27:02.696Z,19.23
2023-05-23T00:28:05.634Z,19.21
2023-05-23T00:29:09.023Z,19.20
2023-05-23T00:30:12.156Z,19.15
2023-05-23T00:31:16.754Z,19.14
2023-05-23T00:33:32.500Z,19.26
2023-05-23T00:34:35.432Z,19.17
2023-05-23T00:36:51.804Z,19.22
2023-05-23T00:37:55.380Z,19.04
2023-05-23T00:38:57.862Z,18.97
2023-05-23T00:40:00.274Z,18.92
2023-05-23T00:41:06.717Z,18.87
2023-05-23T00:42:09.088Z,18.87
2023-05-23T00:43:11.469Z,18.84
2023-05-23T00:44:15.969Z,18.80
2023-05-23T00:45:18.310Z,18.82
2023-05-23T00:46:20.905Z,18.86
2023-05-23T00:47:23.848Z,18.88
2023-05-23T00:48:27.640Z,18.93
2023-05-23T00:49:31.892Z,18.97
2023-05-23T00:50:35.024Z,18.99
2023-05-23T00:51:39.765Z,19.03
2023-05-23T00:52:46.168Z,19.05
2023-05-23T00:53:48.901Z,19.07
2023-05-23T00:54:52.671Z,19.09
2023-05-23T00:55:57.382Z,19.08
2023-05-23T00:56:59.821Z,19.09
2023-05-23T00:58:02.324Z,19.09
2023-05-23T00:59:05.312Z,19.09
2023-05-23T01:00:14.888Z,19.08
2023-05-23T01:01:17.948Z,19.09
2023-05-23T01:02:20.687Z,19.10
2023-05-23T01:03:23.074Z,19.13
2023-05-23T01:04:25.743Z,19.13
2023-05-23T01:05:28.183Z,19.13
2023-05-23T01:06:31.648Z,19.14
2023-05-23T01:07:34.602Z,19.14
2023-05-23T01:09:53.719Z,19.24
2023-05-23T01:11:00.836Z,19.13
2023-05-23T01:12:35.757Z,19.15
2023-05-23T01:13:44.612Z,19.12
2023-05-23T01:15:07.436Z,19.14
2023-05-23T01:16:34.437Z,19.14
2023-05-23T01:18:07.271Z,19.12
2023-05-23T01:21:41.339Z,19.21
2023-05-23T01:22:59.374Z,19.07
2023-05-23T01:24:14.116Z,19.08
2023-05-23T01:25:36.981Z,19.08
2023-05-23T01:27:07.053Z,19.07
2023-05-23T01:28:12.271Z,19.07
2023-05-23T01:29:18.148Z,19.09
2023-05-23T01:30:20.903Z,19.08
2023-05-23T01:31:24.704Z,19.08
2023-05-23T01:32:28.587Z,19.08
2023-05-23T01:33:32.514Z,19.08
2023-05-23T01:34:36.405Z,19.06
2023-05-23T01:35:39.736Z,19.06
2023-05-23T01:36:44.162Z,19.06
2023-05-23T01:37:46.557Z,19.06
2023-05-23T01:38:48.816Z,19.05
2023-05-23T01:39:51.788Z,19.04
2023-05-23T01:40:54.605Z,19.02
2023-05-23T01:41:57.035Z,19.01
2023-05-23T01:42:59.324Z,19.01
2023-05-23T01:44:04.460Z,18.99
2023-05-23T01:45:08.636Z,19.00
2023-05-23T01:46:12.951Z,18.98
2023-05-23T01:47:15.774Z,18.98
2023-05-23T01:48:18.716Z,18.97
2023-05-23T01:49:25.204Z,18.97
2023-05-23T01:50:28.369Z,18.95
2023-05-23T01:51:31.108Z,18.94
2023-05-23T01:52:33.774Z,18.92
2023-05-23T01:53:37.085Z,18.89
2023-05-23T01:54:40.055Z,18.89
2023-05-23T01:55:42.623Z,18.87
2023-05-23T01:56:45.256Z,18.87
2023-05-23T01:57:50.253Z,18.85
2023-05-23T01:58:52.626Z,18.85
2023-05-23T01:59:56.763Z,18.84
2023-05-23T02:00:59.842Z,18.83
2023-05-23T02:02:02.543Z,18.83
2023-05-23T02:03:05.241Z,18.84
2023-05-23T02:04:08.939Z,18.83
2023-05-23T02:05:11.230Z,18.83
2023-05-23T02:06:15.382Z,18.82
2023-05-23T02:07:17.690Z,18.80
2023-05-23T02:08:21.971Z,18.79
2023-05-23T02:09:24.293Z,18.73
2023-05-23T02:10:27.002Z,18.71
2023-05-23T02:11:29.348Z,18.69
2023-05-23T02:12:31.677Z,18.68
2023-05-23T02:13:34.866Z,18.67
2023-05-23T02:14:38.281Z,18.67
2023-05-23T02:15:40.820Z,18.69
2023-05-23T02:16:44.213Z,18.68
2023-05-23T02:17:46.483Z,18.69
2023-05-23T02:18:49.095Z,18.70
2023-05-23T02:19:51.622Z,18.71
2023-05-23T02:20:53.929Z,18.71
2023-05-23T02:21:56.229Z,18.72
2023-05-23T02:23:00.143Z,18.73
2023-05-23T02:24:03.040Z,18.73
2023-05-23T02:25:07.228Z,18.74
2023-05-23T02:26:10.072Z,18.75
2023-05-23T02:27:12.514Z,18.75
2023-05-23T02:28:14.955Z,18.75
2023-05-23T02:29:17.764Z,18.76
2023-05-23T02:30:21.351Z,18.77
2023-05-23T02:31:25.763Z,18.79
2023-05-23T02:32:28.176Z,18.81
2023-05-23T02:33:32.088Z,18.83
2023-05-23T02:34:34.359Z,18.85
2023-05-23T02:35:36.742Z,18.86
2023-05-23T02:36:39.158Z,18.86
2023-05-23T02:37:41.575Z,18.86
2023-05-23T02:38:43.827Z,18.84
2023-05-23T02:39:47.944Z,18.84
2023-05-23T02:40:50.609Z,18.86
2023-05-23T02:41:53.169Z,18.87
2023-05-23T02:42:55.441Z,18.87
2023-05-23T02:44:00.570Z,18.86
2023-05-23T02:45:03.424Z,18.84
2023-05-23T02:46:06.445Z,18.85
2023-05-23T02:47:09.434Z,18.86
2023-05-23T02:48:11.999Z,18.88
2023-05-23T02:49:14.992Z,18.91
2023-05-23T02:50:18.063Z,18.96
2023-05-23T02:51:20.397Z,18.97
2023-05-23T02:52:23.890Z,18.98
2023-05-23T02:53:26.137Z,19.01
2023-05-23T02:54:29.942Z,19.02
2023-05-23T02:55:32.482Z,19.05
2023-05-23T02:56:35.001Z,19.07
2023-05-23T02:57:37.373Z,19.09
2023-05-23T02:58:39.721Z,19.10
2023-05-23T02:59:42.088Z,19.11
2023-05-23T03:00:44.401Z,19.14
2023-05-23T03:01:46.731Z,19.16
2023-05-23T03:02:49.369Z,19.15
2023-05-23T03:03:51.686Z,19.14
2023-05-23T03:04:54.670Z,19.16
2023-05-23T03:05:57.865Z,19.17
2023-05-23T03:07:00.366Z,19.18
2023-05-23T03:08:02.908Z,19.20
2023-05-23T03:09:05.265Z,19.21
2023-05-23T03:10:09.234Z,19.23
2023-05-23T03:11:11.538Z,19.26
2023-05-23T03:12:13.914Z,19.27
2023-05-23T03:13:17.161Z,19.29
2023-05-23T03:14:20.411Z,19.29
2023-05-23T03:15:24.490Z,19.28
2023-05-23T03:16:27.303Z,19.28
2023-05-23T03:17:30.171Z,19.26
2023-05-23T03:18:33.069Z,19.26
2023-05-23T03:19:36.778Z,19.24
2023-05-23T03:20:39.511Z,19.23
2023-05-23T03:21:41.943Z,19.22
2023-05-23T03:22:44.553Z,19.23
2023-05-23T03:23:46.968Z,19.21
2023-05-23T03:24:49.302Z,19.22
2023-05-23T03:25:51.687Z,19.22
2023-05-23T03:26:54.173Z,19.23
2023-05-23T03:27:56.890Z,19.21
2023-05-23T03:29:00.780Z,19.20
2023-05-23T03:30:04.551Z,19.17
2023-05-23T03:31:07.102Z,19.16
2023-05-23T03:32:09.691Z,19.16
2023-05-23T03:33:12.354Z,19.15
2023-05-23T03:34:14.560Z,19.15
2023-05-23T03:35:17.078Z,19.14
2023-05-23T03:36:20.389Z,19.14
2023-05-23T03:37:23.211Z,19.12
2023-05-23T03:38:27.945Z,19.13
2023-05-23T03:39:30.533Z,19.11
2023-05-23T03:40:35.807Z,19.12
2023-05-23T03:41:38.116Z,19.12
2023-05-23T03:42:40.826Z,19.10
2023-05-23T03:43:44.531Z,19.05
2023-05-23T03:44:47.630Z,19.02
2023-05-23T03:45:50.171Z,18.97
2023-05-23T03:46:53.337Z,18.94
2023-05-23T03:47:56.666Z,18.96
2023-05-23T03:48:59.587Z,18.96
2023-05-23T03:50:02.001Z,18.95
2023-05-23T03:51:05.709Z,18.94
2023-05-23T03:52:08.620Z,18.94
2023-05-23T03:53:11.403Z,18.96
2023-05-23T03:54:13.959Z,18.97
2023-05-23T03:55:16.328Z,18.94
2023-05-23T03:56:19.314Z,18.96
2023-05-23T03:57:22.020Z,18.97
2023-05-23T03:58:25.726Z,18.98
2023-05-23T03:59:29.972Z,18.97
2023-05-23T04:00:34.283Z,18.94
2023-05-23T04:01:38.890Z,18.88
2023-05-23T04:02:41.398Z,18.78
2023-05-23T04:03:43.794Z,18.72
2023-05-23T04:04:46.096Z,18.72
2023-05-23T04:05:48.230Z,18.75
2023-05-23T04:06:51.152Z,18.79
2023-05-23T04:07:53.395Z,18.84
2023-05-23T04:08:59.022Z,18.90
2023-05-23T04:10:01.941Z,18.93
2023-05-23T04:11:06.081Z,18.96
2023-05-23T04:12:10.391Z,19.02
2023-05-23T04:13:13.530Z,19.08
2023-05-23T04:14:15.851Z,19.15
2023-05-23T04:15:18.172Z,19.19
2023-05-23T04:16:28.450Z,19.24
2023-05-23T04:17:31.616Z,19.28
2023-05-23T04:18:34.178Z,19.32
2023-05-23T04:19:38.555Z,19.34
2023-05-23T04:20:41.665Z,19.38
2023-05-23T04:21:44.330Z,19.40
2023-05-23T04:22:50.323Z,19.41
2023-05-23T04:23:54.064Z,19.41
2023-05-23T04:24:59.130Z,19.41
2023-05-23T04:26:04.036Z,19.43
2023-05-23T04:27:08.860Z,19.46
2023-05-23T04:28:12.295Z,19.48
2023-05-23T04:29:14.653Z,19.50
2023-05-23T04:30:17.884Z,19.53
2023-05-23T04:31:21.984Z,19.56
2023-05-23T04:32:24.691Z,19.58
2023-05-23T04:33:26.983Z,19.60
2023-05-23T04:34:30.184Z,19.62
2023-05-23T04:35:33.459Z,19.64
2023-05-23T04:36:35.923Z,19.66
2023-05-23T04:37:38.394Z,19.68
2023-05-23T04:38:41.650Z,19.69
2023-05-23T04:39:44.452Z,19.70
2023-05-23T04:40:48.620Z,19.71
2023-05-23T04:42:03.046Z,19.73
2023-05-23T04:44:30.198Z,19.89
2023-05-23T04:45:36.937Z,19.72
2023-05-23T04:46:41.222Z,19.72
2023-05-23T04:47:51.560Z,19.74
2023-05-23T04:48:55.695Z,19.75
2023-05-23T04:49:58.484Z,19.79
2023-05-23T04:51:01.319Z,19.79
2023-05-23T04:52:04.773Z,19.83
2023-05-23T04:53:08.287Z,19.85
2023-05-23T04:54:11.562Z,19.87
2023-05-23T04:55:14.092Z,19.84
2023-05-23T04:56:18.896Z,19.82
2023-05-23T04:57:23.059Z,19.81
2023-05-23T04:58:25.828Z,19.84
2023-05-23T04:59:29.970Z,19.85
2023-05-23T05:00:32.380Z,19.84
2023-05-23T05:01:35.554Z,19.87
2023-05-23T05:02:40.707Z,19.87
2023-05-23T05:03:44.261Z,19.88
2023-05-23T05:04:46.539Z,19.87
2023-05-23T05:05:48.871Z,19.83
2023-05-23T05:06:52.424Z,19.84
2023-05-23T05:07:55.046Z,19.84
2023-05-23T05:08:57.293Z,19.88
2023-05-23T05:10:01.045Z,19.90
2023-05-23T05:11:04.896Z,19.96
2023-05-23T05:12:08.816Z,19.96
2023-05-23T05:13:10.978Z,20.00
2023-05-23T05:14:17.613Z,20.16
2023-05-23T05:15:19.746Z,20.51
2023-05-23T05:16:24.718Z,20.55
2023-05-23T05:17:28.106Z,20.68
2023-05-23T05:18:38.656Z,20.87
2023-05-23T05:19:40.992Z,20.90
2023-05-23T05:20:43.880Z,20.93
2023-05-23T05:21:46.270Z,20.97
2023-05-23T05:24:08.023Z,21.32
2023-05-23T05:25:10.900Z,21.45
2023-05-23T05:26:14.245Z,21.77
2023-05-23T05:27:17.701Z,22.07
2023-05-23T05:28:20.118Z,22.33
2023-05-23T05:29:24.213Z,22.54
2023-05-23T05:30:27.754Z,22.78
2023-05-23T05:31:32.174Z,23.06
2023-05-23T05:32:35.536Z,23.31
2023-05-23T05:33:38.408Z,23.54
2023-05-23T05:34:42.627Z,23.69
2023-05-23T05:35:45.435Z,23.75
2023-05-23T05:36:50.295Z,23.81
2023-05-23T05:37:54.050Z,23.96
2023-05-23T05:38:56.419Z,24.14
2023-05-23T05:39:58.801Z,24.26
2023-05-23T05:41:01.207Z,24.35
2023-05-23T05:42:06.304Z,24.42
2023-05-23T05:43:09.223Z,24.49
2023-05-23T05:44:11.307Z,24.58
2023-05-23T05:45:13.738Z,24.66
2023-05-23T05:46:18.357Z,24.74
2023-05-23T05:47:20.762Z,24.84
2023-05-23T05:48:24.059Z,24.93
2023-05-23T05:49:28.339Z,25.04
2023-05-23T05:50:32.432Z,25.16
2023-05-23T05:51:35.650Z,25.28
2023-05-23T05:52:38.788Z,25.41
2023-05-23T05:53:43.084Z,25.47
2023-05-23T05:54:45.976Z,25.55
2023-05-23T05:55:48.350Z,25.62
2023-05-23T05:56:52.378Z,25.73
2023-05-23T05:57:54.818Z,25.83
2023-05-23T05:58:58.008Z,25.93
2023-05-23T06:00:00.317Z,26.08
2023-05-23T06:01:03.213Z,26.25
2023-05-23T06:02:06.435Z,26.43
2023-05-23T06:03:08.856Z,26.62
2023-05-23T06:04:13.432Z,26.81
2023-05-23T06:05:16.204Z,26.94
2023-05-23T06:06:18.927Z,26.93
2023-05-23T06:07:21.326Z,26.86
2023-05-23T06:08:23.749Z,26.77
2023-05-23T06:09:26.164Z,26.68
2023-05-23T06:10:29.239Z,26.57
2023-05-23T06:11:32.479Z,26.45
2023-05-23T06:12:35.403Z,26.35
2023-05-23T06:13:38.382Z,26.21
2023-05-23T06:14:40.897Z,26.19
2023-05-23T06:15:44.209Z,26.03
2023-05-23T06:16:46.986Z,25.87
2023-05-23T06:17:49.256Z,25.78
2023-05-23T06:18:52.171Z,25.71
2023-05-23T06:19:55.692Z,25.68
2023-05-23T06:22:15.429Z,25.73
2023-05-23T06:23:18.656Z,25.57
2023-05-23T06:24:21.990Z,25.51
2023-05-23T06:25:24.601Z,25.46
2023-05-23T06:26:33.221Z,25.42
2023-05-23T06:27:35.582Z,25.40
2023-05-23T06:28:38.717Z,25.36
2023-05-23T06:29:42.531Z,25.31
2023-05-23T06:30:44.849Z,25.27
2023-05-23T06:31:47.291Z,25.20
2023-05-23T06:32:49.493Z,25.13
2023-05-23T06:33:53.716Z,25.10
2023-05-23T06:34:56.127Z,25.08
2023-05-23T06:35:58.651Z,25.05
2023-05-23T06:37:01.523Z,25.02
2023-05-23T06:38:03.884Z,24.94
2023-05-23T06:39:06.356Z,24.84
2023-05-23T06:40:11.482Z,24.75
2023-05-23T06:41:14.048Z,24.67
2023-05-23T06:42:16.740Z,24.64
2023-05-23T06:43:26.643Z,24.59
2023-05-23T06:44:30.887Z,24.54
2023-05-23T06:45:34.118Z,24.49
2023-05-23T06:46:39.742Z,24.42
2023-05-23T06:47:41.760Z,24.40
2023-05-23T06:48:43.949Z,24.38
2023-05-23T06:49:46.809Z,24.35
2023-05-23T06:50:49.798Z,24.36
2023-05-23T06:51:52.799Z,24.37
2023-05-23T06:52:55.553Z,24.41
2023-05-23T06:53:58.432Z,24.45
2023-05-23T06:55:00.748Z,24.51
2023-05-23T06:56:03.191Z,24.59
2023-05-23T06:57:06.993Z,24.66
2023-05-23T06:58:10.322Z,24.74
2023-05-23T06:59:12.792Z,24.82
2023-05-23T07:00:17.162Z,24.91
2023-05-23T07:01:21.490Z,24.99
2023-05-23T07:02:25.189Z,25.09
2023-05-23T07:03:27.921Z,25.16
2023-05-23T07:04:33.184Z,25.24
2023-05-23T07:05:40.111Z,25.32
2023-05-23T07:06:41.616Z,25.40
2023-05-23T07:07:44.006Z,25.47
2023-05-23T07:08:46.708Z,25.55
2023-05-23T07:09:50.763Z,25.64
2023-05-23T07:10:54.017Z,25.71
2023-05-23T07:11:58.111Z,25.78
2023-05-23T07:13:01.208Z,25.85
2023-05-23T07:14:03.658Z,25.93
2023-05-23T07:15:11.616Z,26.01
2023-05-23T07:16:16.582Z,26.09
2023-05-23T07:17:20.828Z,26.15
2023-05-23T07:18:23.974Z,26.21
2023-05-23T07:19:27.080Z,26.25
2023-05-23T07:20:33.222Z,26.30
2023-05-23T07:21:37.460Z,26.33
2023-05-23T07:22:40.809Z,26.38
2023-05-23T07:23:43.228Z,26.42
2023-05-23T07:24:46.197Z,26.46
2023-05-23T07:26:01.209Z,26.52
2023-05-23T07:27:00.649Z,26.57
2023-05-23T07:28:02.954Z,26.65
2023-05-23T07:29:05.522Z,26.69
2023-05-23T07:30:08.951Z,26.74
2023-05-23T07:31:12.241Z,26.81
2023-05-23T07:32:15.586Z,26.87
2023-05-23T07:33:18.686Z,26.95
2023-05-23T07:34:22.077Z,27.01
2023-05-23T07:35:29.147Z,27.08
2023-05-23T07:36:32.360Z,27.15
2023-05-23T07:37:36.061Z,27.21
2023-05-23T07:38:38.563Z,27.25
2023-05-23T07:39:41.642Z,27.28
2023-05-23T07:40:46.719Z,27.33
2023-05-23T07:41:48.853Z,27.38
2023-05-23T07:42:53.041Z,27.44
2023-05-23T07:43:55.159Z,27.47
2023-05-23T07:44:58.020Z,27.51
2023-05-23T07:46:00.706Z,27.54
2023-05-23T07:47:03.833Z,27.57
2023-05-23T07:49:45.227Z,27.75
2023-05-23T07:50:47.700Z,27.68
2023-05-23T07:51:50.004Z,27.73
2023-05-23T07:52:52.944Z,27.76
2023-05-23T07:53:57.209Z,27.79
2023-05-23T07:54:59.638Z,27.82
2023-05-23T07:56:04.267Z,27.88
2023-05-23T07:57:08.729Z,27.91
2023-05-23T07:58:12.738Z,27.93
2023-05-23T07:59:19.040Z,27.94
2023-05-23T08:00:22.843Z,27.97
2023-05-23T08:01:27.952Z,27.99
2023-05-23T08:02:35.197Z,28.02
2023-05-23T08:03:37.665Z,28.05
2023-05-23T08:04:41.827Z,28.09
2023-05-23T08:05:45.679Z,28.10
2023-05-23T08:07:00.787Z,28.11
2023-05-23T08:07:56.290Z,28.13
2023-05-23T08:09:02.210Z,28.15
2023-05-23T08:10:07.015Z,28.18
2023-05-23T08:11:09.491Z,28.20
2023-05-23T08:12:13.716Z,28.21
2023-05-23T08:13:17.798Z,28.21
2023-05-23T08:14:24.700Z,28.21
2023-05-23T08:15:29.538Z,28.19
2023-05-23T08:16:34.797Z,28.20
2023-05-23T08:17:39.189Z,28.21
2023-05-23T08:18:41.508Z,28.21
2023-05-23T08:19:43.972Z,28.25
2023-05-23T08:20:48.930Z,28.28
2023-05-23T08:21:54.310Z,28.31
2023-05-23T08:23:02.338Z,28.34
2023-05-23T08:24:14.100Z,28.38
2023-05-23T08:25:17.628Z,28.41
2023-05-23T08:26:20.154Z,28.44
2023-05-23T08:27:23.193Z,28.44
2023-05-23T08:28:27.394Z,28.46
2023-05-23T08:29:30.546Z,28.48
2023-05-23T08:31:47.900Z,28.61
2023-05-23T08:32:52.451Z,28.52
2023-05-23T08:33:59.662Z,28.54
2023-05-23T08:35:05.136Z,28.55
2023-05-23T08:36:14.827Z,28.56
2023-05-23T08:37:20.885Z,28.57
2023-05-23T08:38:24.511Z,28.60
2023-05-23T08:39:30.860Z,28.62
2023-05-23T08:40:52.767Z,28.65
2023-05-23T08:41:56.065Z,28.68
2023-05-23T08:43:00.739Z,28.71
2023-05-23T08:44:06.780Z,28.73
2023-05-23T08:45:12.055Z,28.74
2023-05-23T08:46:18.202Z,28.77
2023-05-23T08:47:22.480Z,28.78
2023-05-23T08:48:28.392Z,28.77
2023-05-23T08:49:32.060Z,28.76
2023-05-23T08:50:37.110Z,28.72
2023-05-23T08:51:42.295Z,28.71
2023-05-23T08:52:57.885Z,28.73
2023-05-23T08:54:01.142Z,28.72
2023-05-23T08:56:23.753Z,28.75
2023-05-23T08:57:28.427Z,28.65
2023-05-23T08:58:34.586Z,28.65
2023-05-23T08:59:38.601Z,28.66
2023-05-23T09:00:43.075Z,28.69
2023-05-23T09:01:47.763Z,28.71
2023-05-23T09:02:50.210Z,28.74
2023-05-23T09:03:57.951Z,28.75
2023-05-23T09:05:11.809Z,28.77
2023-05-23T09:06:15.673Z,28.80
2023-05-23T09:07:18.955Z,28.83
2023-05-23T09:08:22.183Z,28.85
2023-05-23T09:09:26.460Z,28.85
2023-05-23T09:10:30.852Z,28.85
2023-05-23T09:11:36.238Z,28.87
2023-05-23T09:12:41.526Z,28.89
2023-05-23T09:13:45.639Z,28.91
2023-05-23T09:14:51.547Z,28.94
2023-05-23T09:17:38.932Z,29.11
2023-05-23T09:18:44.509Z,29.01
2023-05-23T09:19:48.708Z,29.02
2023-05-23T09:21:05.652Z,29.03
2023-05-23T09:22:09.410Z,29.02
2023-05-23T09:23:15.662Z,28.99
2023-05-23T09:24:20.150Z,28.99
2023-05-23T09:25:22.647Z,28.96
2023-05-23T09:26:27.102Z,28.90
2023-05-23T09:27:31.332Z,28.87
2023-05-23T09:28:36.782Z,28.79
2023-05-23T09:29:45.393Z,28.71
2023-05-23T09:30:43.883Z,28.64
2023-05-23T09:31:49.328Z,28.61
2023-05-23T09:33:02.900Z,28.56
2023-05-23T09:34:06.139Z,28.48
2023-05-23T09:35:12.077Z,28.41
2023-05-23T09:36:17.040Z,28.33
2023-05-23T09:37:19.885Z,28.28
2023-05-23T09:38:22.662Z,28.22
2023-05-23T09:39:25.353Z,28.18
2023-05-23T09:40:36.028Z,28.09
2023-05-23T09:41:50.860Z,28.02
2023-05-23T09:44:11.345Z,27.96
2023-05-23T09:45:15.900Z,27.79
2023-05-23T09:46:22.434Z,27.78
2023-05-23T09:47:25.740Z,27.77
2023-05-23T09:48:29.803Z,27.78
2023-05-23T09:49:32.527Z,27.80
2023-05-23T09:50:35.565Z,27.82
2023-05-23T09:51:38.216Z,27.83
2023-05-23T09:52:40.554Z,27.83
2023-05-23T09:53:43.406Z,27.82
2023-05-23T09:54:46.720Z,27.82
2023-05-23T09:55:52.409Z,27.83
2023-05-23T09:56:55.604Z,27.84
2023-05-23T09:57:58.902Z,27.83
2023-05-23T09:59:02.851Z,27.81
2023-05-23T10:00:07.527Z,27.82
2023-05-23T10:01:13.684Z,27.80
2023-05-23T10:02:18.682Z,27.76
2023-05-23T10:04:51.614Z,27.76
2023-05-23T10:07:21.095Z,27.64
2023-05-23T10:09:58.888Z,27.62
2023-05-23T10:11:18.103Z,27.42
2023-05-23T10:12:38.449Z,27.35
2023-05-23T10:13:45.317Z,27.27
2023-05-23T10:14:52.693Z,27.22
2023-05-23T10:17:20.306Z,27.34
2023-05-23T10:18:29.571Z,27.21
2023-05-23T10:19:54.190Z,27.19
2023-05-23T10:21:00.602Z,27.18
2023-05-23T10:22:06.983Z,27.16
2023-05-23T10:23:11.838Z,27.16
2023-05-23T10:24:16.182Z,27.18
2023-05-23T10:25:19.118Z,27.23
2023-05-23T10:26:28.031Z,27.26
2023-05-23T10:27:32.698Z,27.29
2023-05-23T10:28:35.914Z,27.32
2023-05-23T10:29:38.498Z,27.35
2023-05-23T10:30:41.663Z,27.35
2023-05-23T10:31:45.361Z,27.36
2023-05-23T10:32:48.377Z,27.38
2023-05-23T10:34:00.104Z,27.38
2023-05-23T10:35:27.474Z,27.39
2023-05-23T10:38:09.115Z,27.49
2023-05-23T10:39:17.905Z,27.31
2023-05-23T10:40:33.043Z,27.25
2023-05-23T10:41:52.151Z,27.22
2023-05-23T10:43:17.772Z,27.19
2023-05-23T10:44:26.881Z,27.17
2023-05-23T10:45:30.983Z,27.16
2023-05-23T10:46:58.027Z,27.18
2023-05-23T10:48:03.794Z,27.17
2023-05-23T10:49:08.377Z,27.17
2023-05-23T10:50:17.482Z,27.17
2023-05-23T10:51:23.942Z,27.18
2023-05-23T10:52:27.357Z,27.19
2023-05-23T10:54:55.873Z,27.26
2023-05-23T10:55:58.082Z,27.08
2023-05-23T10:57:05.058Z,27.00
2023-05-23T10:58:19.416Z,26.95
2023-05-23T10:59:21.720Z,26.91
2023-05-23T11:00:26.704Z,26.89
2023-05-23T11:01:30.102Z,26.87
2023-05-23T11:02:32.506Z,26.85
2023-05-23T11:03:40.798Z,26.86
2023-05-23T11:04:45.007Z,26.86
2023-05-23T11:05:53.484Z,26.90
2023-05-23T11:06:56.360Z,26.93
2023-05-23T11:09:26.156Z,27.03
2023-05-23T11:10:31.065Z,26.92
2023-05-23T11:13:16.821Z,26.99
2023-05-23T11:14:21.153Z,26.87
2023-05-23T11:15:23.589Z,26.87
2023-05-23T11:17:44.236Z,27.00
2023-05-23T11:18:46.615Z,26.91
2023-05-23T11:20:08.516Z,26.94
2023-05-23T11:21:11.124Z,26.96
2023-05-23T11:22:13.337Z,26.97
2023-05-23T11:23:15.444Z,26.98
2023-05-23T11:24:17.741Z,26.98
2023-05-23T11:25:21.090Z,26.99
2023-05-23T11:27:42.290Z,27.06
2023-05-23T11:28:58.684Z,26.94
2023-05-23T11:30:04.511Z,26.94
2023-05-23T11:31:07.495Z,26.95
2023-05-23T11:32:16.063Z,26.98
2023-05-23T11:33:16.657Z,27.00
2023-05-23T11:34:21.186Z,27.00
2023-05-23T11:35:23.864Z,27.01
2023-05-23T11:36:27.416Z,27.00
2023-05-23T11:37:30.794Z,26.98
2023-05-23T11:38:33.680Z,26.94
2023-05-23T11:39:36.154Z,26.90
2023-05-23T11:40:41.821Z,26.87
2023-05-23T11:42:01.670Z,26.89
2023-05-23T11:44:18.631Z,27.01
2023-05-23T11:45:21.812Z,26.90
2023-05-23T11:46:24.224Z,26.91
2023-05-23T11:47:26.312Z,26.90
2023-05-23T11:48:28.994Z,26.90
2023-05-23T11:49:43.099Z,26.87
2023-05-23T11:50:51.787Z,26.87
2023-05-23T11:52:02.093Z,26.87
2023-05-23T11:53:09.543Z,26.87
2023-05-23T11:54:11.930Z,26.88
2023-05-23T11:55:16.853Z,26.91
2023-05-23T11:56:19.416Z,26.91
2023-05-23T11:57:23.366Z,26.94
2023-05-23T11:58:38.500Z,26.95
2023-05-23T11:59:44.204Z,26.99
2023-05-23T12:00:48.686Z,27.02
2023-05-23T12:02:12.643Z,27.04
2023-05-23T12:03:15.654Z,27.05
2023-05-23T12:04:18.292Z,27.08
2023-05-23T12:05:20.865Z,27.08
2023-05-23T12:06:25.285Z,27.09
2023-05-23T12:07:29.090Z,27.08
2023-05-23T12:08:33.052Z,27.08
2023-05-23T12:09:44.127Z,27.05
2023-05-23T12:10:57.688Z,27.02
2023-05-23T12:12:00.166Z,26.97
2023-05-23T12:13:04.851Z,26.91
2023-05-23T12:14:18.084Z,26.85
2023-05-23T12:15:25.195Z,26.82
2023-05-23T12:16:28.571Z,26.78
2023-05-23T12:17:33.807Z,26.74
2023-05-23T12:18:37.468Z,26.72
2023-05-23T12:19:43.743Z,26.70
2023-05-23T12:20:50.756Z,26.65
2023-05-23T12:21:53.127Z,26.60
2023-05-23T12:22:58.406Z,26.53
2023-05-23T12:24:04.326Z,26.49
2023-05-23T12:26:24.825Z,26.56
2023-05-23T12:27:32.895Z,26.47
2023-05-23T12:28:40.557Z,26.49
2023-05-23T12:29:44.691Z,26.53
2023-05-23T12:30:47.307Z,26.54
2023-05-23T12:31:49.915Z,26.56
2023-05-23T12:34:23.564Z,26.72
2023-05-23T12:35:30.643Z,26.61
2023-05-23T12:36:41.947Z,26.64
2023-05-23T12:37:42.128Z,26.66
2023-05-23T12:38:48.077Z,26.67
2023-05-23T12:39:51.128Z,26.68
2023-05-23T12:41:12.552Z,26.69
2023-05-23T12:42:15.272Z,26.71
2023-05-23T12:43:20.254Z,26.75
2023-05-23T12:44:22.976Z,26.77
2023-05-23T12:45:33.729Z,26.79
2023-05-23T12:46:36.093Z,26.81
2023-05-23T12:47:38.282Z,26.84
2023-05-23T12:48:40.544Z,26.86
2023-05-23T12:49:43.644Z,26.88
2023-05-23T12:50:46.179Z,26.91
2023-05-23T12:51:48.570Z,26.94
2023-05-23T12:52:50.958Z,26.95
2023-05-23T12:53:54.603Z,26.97
2023-05-23T12:56:14.540Z,27.09
2023-05-23T12:57:16.880Z,27.02
2023-05-23T12:58:20.709Z,27.03
2023-05-23T12:59:23.376Z,27.06
2023-05-23T13:00:26.195Z,27.05
2023-05-23T13:01:29.142Z,27.00
2023-05-23T13:02:32.901Z,26.97
2023-05-23T13:03:35.290Z,26.93
2023-05-23T13:04:37.552Z,26.86
2023-05-23T13:05:42.627Z,26.81
2023-05-23T13:06:45.186Z,26.74
2023-05-23T13:07:47.442Z,26.67
2023-05-23T13:08:50.012Z,26.62
2023-05-23T13:09:52.665Z,26.55
2023-05-23T13:10:55.150Z,26.49
2023-05-23T13:11:58.002Z,26.45
2023-05-23T13:13:00.280Z,26.43
2023-05-23T13:14:05.267Z,26.39
2023-05-23T13:15:09.096Z,26.39
2023-05-23T13:16:15.752Z,26.38
2023-05-23T13:17:19.523Z,26.37
2023-05-23T13:18:22.041Z,26.32
2023-05-23T13:19:27.480Z,26.26
2023-05-23T13:20:30.517Z,26.21
2023-05-23T13:21:33.267Z,26.15
2023-05-23T13:23:44.986Z,26.18
2023-05-23T13:26:07.518Z,26.07
2023-05-23T13:27:10.590Z,25.89
2023-05-23T13:28:12.982Z,25.85
2023-05-23T13:29:15.623Z,25.83
2023-05-23T13:30:17.999Z,25.81
2023-05-23T13:31:20.687Z,25.78
2023-05-23T13:32:23.500Z,25.76
2023-05-23T13:33:26.187Z,25.73
2023-05-23T13:34:28.362Z,25.71
2023-05-23T13:35:32.247Z,25.70
2023-05-23T13:36:35.337Z,25.67
2023-05-23T13:37:37.685Z,25.66
2023-05-23T13:38:39.973Z,25.64
2023-05-23T13:39:43.454Z,25.62
2023-05-23T13:40:51.074Z,25.60
2023-05-23T13:41:53.517Z,25.57
2023-05-23T13:42:58.317Z,25.54
2023-05-23T13:44:00.656Z,25.51
2023-05-23T13:45:03.247Z,25.50
2023-05-23T13:46:06.077Z,25.47
2023-05-23T13:47:13.636Z,25.45
2023-05-23T13:48:16.306Z,25.42
2023-05-23T13:49:19.340Z,25.41
2023-05-23T13:50:21.653Z,25.40
2023-05-23T13:51:23.884Z,25.38
2023-05-23T13:54:11.867Z,25.35
2023-05-23T13:55:16.104Z,25.36
2023-05-23T13:56:19.424Z,25.37
2023-05-23T13:57:21.875Z,25.35
2023-05-23T13:58:24.612Z,25.38
2023-05-23T13:59:27.511Z,25.38
2023-05-23T14:00:30.134Z,25.38
2023-05-23T14:01:32.498Z,25.39
2023-05-23T14:02:34.933Z,25.41
2023-05-23T14:03:37.073Z,25.43
2023-05-23T14:04:39.280Z,25.46
2023-05-23T14:05:42.654Z,25.49
2023-05-23T14:06:45.906Z,25.51
2023-05-23T14:07:48.356Z,25.55
2023-05-23T14:08:50.629Z,25.60
2023-05-23T14:09:52.876Z,25.62
2023-05-23T14:10:55.580Z,25.66
2023-05-23T14:11:58.028Z,25.69
2023-05-23T14:13:00.390Z,25.71
2023-05-23T14:14:03.210Z,25.74
2023-05-23T14:16:15.382Z,25.88
2023-05-23T14:17:18.182Z,25.78
2023-05-23T14:18:21.158Z,25.79
2023-05-23T14:20:38.660Z,25.92
2023-05-23T14:21:41.775Z,25.80
2023-05-23T14:22:45.407Z,25.81
2023-05-23T14:23:47.671Z,25.83
2023-05-23T14:24:49.674Z,25.86
2023-05-23T14:25:52.045Z,25.87
2023-05-23T14:26:54.371Z,25.86
2023-05-23T14:27:56.537Z,25.87
2023-05-23T14:28:58.685Z,25.88
2023-05-23T14:30:02.012Z,25.87
2023-05-23T14:31:04.781Z,25.87
2023-05-23T14:32:07.577Z,25.87
2023-05-23T14:33:11.282Z,25.87
2023-05-23T14:34:13.967Z,25.87
2023-05-23T14:35:16.297Z,25.86